Time;durP1;ratioP1;P1;durP2;ratioP2;P2;SDS_P1;SDS_P2;PMS_P1;PMS_P2;Temp;Humidity;BMP_temperature;BMP_pressure;BME280_temperature;BME280_humidity;BME280_pressure;Samples;Min_cycle;Max_cycle;Signal;HPM_P1;HPM_P2
2023/11/13 00:00:04;;;;;;;;;;;;;;;;;;5050257;28;4708;-49
2023/11/13 00:02:29;;;;;;;;;;;;;;;;;;5068595;28;1074;-49
2023/11/13 00:05:27;;;;;;;;;;;;;;;;;;5077537;28;5121;-50
2023/11/13 00:07:55;;;;;;;;;;;;;;;;;;5053096;28;4620;-49
2023/11/13 00:10:20;;;;;;;;;;;;;;;;;;5050513;28;5025;-49
2023/11/13 00:16:10;;;;;;;;;;;;;;;;;;5061310;28;5149;-49
2023/11/13 00:18:35;;;;;;;;;;;;;;;;;;5073674;28;4903;-53
2023/11/13 00:21:00;;;;;;;;;;;;;;;;;;5064451;28;4843;-49
2023/11/13 00:23:27;;;;;;;;;;;;;;;;;;5041075;28;1161;-53
2023/11/13 00:25:52;;;;;;;;;;;;;;;;;;5070522;28;4932;-49
2023/11/13 00:28:18;;;;;;;;;;;;;;;;;;5064357;28;4466;-50
2023/11/13 00:30:43;;;;;;;;;;;;;;;;;;5061687;28;5341;-50
2023/11/13 00:33:09;;;;;;;;;;;;;;;;;;5054807;28;4684;-52
2023/11/13 00:35:34;;;;;;;;;;;;;;;;;;5053914;28;1100;-51
2023/11/13 00:37:59;;;;;;;;;;;;;;;;;;5052215;28;5257;-51
2023/11/13 00:40:27;;;;;;;;;;;;;;;;;;5055380;28;4943;-51
2023/11/13 00:43:12;;;;;;;;;;;;;;;;;;5054003;28;5370;-50
2023/11/13 00:45:37;;;;;;;;;;;;;;;;;;5053057;28;5007;-52
2023/11/13 00:48:03;;;;;;;;;;;;;;;;;;5058128;28;5285;-50
2023/11/13 00:50:28;;;;;;;;;;;;;;;;;;5054290;28;2378;-51
2023/11/13 00:52:59;;;;;;;;;;;;;;;;;;5053010;28;5107;-53
2023/11/13 00:58:31;;;;;;;;;;;;;;;;;;5052386;28;4562;-53
2023/11/13 01:04:05;;;;;;;;;;;;;;;;;;5052818;28;4440;-50
2023/11/13 01:06:43;;;;;;;;;;;;;;;;;;5059882;28;5134;-50
2023/11/13 01:09:11;;;;;;;;;;;;;;;;;;5056816;28;4465;-50
2023/11/13 01:11:37;;;;;;;;;;;;;;;;;;5054080;28;1985;-49
2023/11/13 01:14:03;;;;;;;;;;;;;;;;;;5066534;28;4881;-50
2023/11/13 01:16:28;;;;;;;;;;;;;;;;;;5053936;28;4987;-50
2023/11/13 01:18:54;;;;;;;;;;;;;;;;;;5050539;28;5306;-50
2023/11/13 01:24:23;;;;;;;;;;;;;;;;;;5052940;28;5109;-49
2023/11/13 01:26:49;;;;;;;;;;;;;;;;;;5071713;28;1246;-53
2023/11/13 01:29:15;;;;;;;;;;;;;;;;;;5060214;28;4860;-50
2023/11/13 01:31:40;;;;;;;;;;;;;;;;;;5047588;28;4460;-50
2023/11/13 01:34:05;;;;;;;;;;;;;;;;;;5032800;28;5110;-52
2023/11/13 01:36:31;;;;;;;;;;;;;;;;;;5050029;28;5105;-51
2023/11/13 01:38:56;;;;;;;;;;;;;;;;;;5067058;28;1195;-51
2023/11/13 01:44:30;;;;;;;;;;;;;;;;;;5054487;28;4914;-52
2023/11/13 01:46:56;;;;;;;;;;;;;;;;;;5065517;28;4767;-51
2023/11/13 01:49:21;;;;;;;;;;;;;;;;;;5068382;28;4613;-50
2023/11/13 01:51:47;;;;;;;;;;;;;;;;;;5073215;28;5038;-52
2023/11/13 01:54:13;;;;;;;;;;;;;;;;;;5047915;28;4467;-52
2023/11/13 01:56:39;;;;;;;;;;;;;;;;;;5066133;28;1247;-52
2023/11/13 01:59:04;;;;;;;;;;;;;;;;;;5068453;28;5091;-52
2023/11/13 02:04:32;;;;;;;;;;;;;;;;;;5052198;28;4433;-52
2023/11/13 02:06:57;;;;;;;;;;;;;;;;;;5055038;28;5127;-49
2023/11/13 02:09:24;;;;;;;;;;;;;;;;;;5050069;28;4708;-49
2023/11/13 02:11:57;;;;;;;;;;;;;;;;;;5052072;28;1917;-54
2023/11/13 02:14:31;;;;;;;;;;;;;;;;;;5034600;28;4485;-53
2023/11/13 02:26:40;;;;;;;;;;;;;;;;;;5049820;28;4759;-53
2023/11/13 02:29:27;;;;;;;;;;;;;;;;;;5047411;28;4901;-51
2023/11/13 02:31:57;;;;;;;;;;;;;;;;;;5050141;28;5017;-52
2023/11/13 02:34:23;;;;;;;;;;;;;;;;;;5057996;28;4600;-50
2023/11/13 02:36:49;;;;;;;;;;;;;;;;;;5049413;28;5158;-50
2023/11/13 02:39:16;;;;;;;;;;;;;;;;;;5052103;28;5017;-50
2023/11/13 02:41:42;;;;;;;;;;;;;;;;;;5055758;28;1125;-49
2023/11/13 02:44:08;;;;;;;;;;;;;;;;;;5052065;28;4722;-49
2023/11/13 02:46:36;;;;;;;;;;;;;;;;;;5040210;28;5205;-50
2023/11/13 02:49:01;;;;;;;;;;;;;;;;;;5072473;28;5019;-50
2023/11/13 02:51:28;;;;;;;;;;;;;;;;;;5026205;28;4713;-49
2023/11/13 02:53:54;;;;;;;;;;;;;;;;;;5035366;28;1662;-50
2023/11/13 02:56:19;;;;;;;;;;;;;;;;;;5067700;28;5084;-48
2023/11/13 02:58:44;;;;;;;;;;;;;;;;;;5050474;28;5116;-49
2023/11/13 03:01:09;;;;;;;;;;;;;;;;;;5050234;28;5147;-49
2023/11/13 03:03:35;;;;;;;;;;;;;;;;;;5060716;28;4868;-50
2023/11/13 03:06:00;;;;;;;;;;;;;;;;;;5070155;28;5061;-49
2023/11/13 03:08:25;;;;;;;;;;;;;;;;;;5074611;28;1079;-48
2023/11/13 03:10:57;;;;;;;;;;;;;;;;;;5050754;28;5010;-51
2023/11/13 03:13:22;;;;;;;;;;;;;;;;;;5049455;28;5205;-51
2023/11/13 03:15:54;;;;;;;;;;;;;;;;;;5052608;28;4924;-51
2023/11/13 03:18:30;;;;;;;;;;;;;;;;;;5052122;28;5077;-51
2023/11/13 03:20:55;;;;;;;;;;;;;;;;;;5056594;28;1658;-50
2023/11/13 03:23:21;;;;;;;;;;;;;;;;;;5051936;28;4802;-51
2023/11/13 03:25:46;;;;;;;;;;;;;;;;;;5045293;28;4667;-48
2023/11/13 03:28:11;;;;;;;;;;;;;;;;;;5046521;28;5027;-54
2023/11/13 03:30:37;;;;;;;;;;;;;;;;;;5058160;28;5007;-48
2023/11/13 03:33:18;;;;;;;;;;;;;;;;;;5039944;28;4542;-48
2023/11/13 03:35:44;;;;;;;;;;;;;;;;;;5045256;28;3258;-48
2023/11/13 03:38:09;;;;;;;;;;;;;;;;;;5058260;28;4946;-49
2023/11/13 03:40:35;;;;;;;;;;;;;;;;;;5048430;28;5157;-51
2023/11/13 03:43:00;;;;;;;;;;;;;;;;;;5044769;28;4847;-49
2023/11/13 03:45:25;;;;;;;;;;;;;;;;;;5047648;28;4496;-49
2023/11/13 03:47:50;;;;;;;;;;;;;;;;;;5049421;28;2769;-50
2023/11/13 03:53:40;;;;;;;;;;;;;;;;;;5054000;28;5001;-50
2023/11/13 03:56:05;;;;;;;;;;;;;;;;;;5060545;28;4997;-50
2023/11/13 03:58:30;;;;;;;;;;;;;;;;;;5049734;28;5026;-52
2023/11/13 04:00:55;;;;;;;;;;;;;;;;;;5053652;28;5039;-50
2023/11/13 04:07:00;;;;;;;;;;;;;;;;;;5051864;28;5308;-51
2023/11/13 04:09:26;;;;;;;;;;;;;;;;;;5045825;28;4892;-51
2023/11/13 04:11:51;;;;;;;;;;;;;;;;;;5046205;28;1922;-49
2023/11/13 04:14:16;;;;;;;;;;;;;;;;;;5048694;28;4422;-48
2023/11/13 04:16:42;;;;;;;;;;;;;;;;;;5052802;28;4995;-48
2023/11/13 04:19:14;;;;;;;;;;;;;;;;;;5049450;28;5229;-50
2023/11/13 04:21:39;;;;;;;;;;;;;;;;;;5047054;28;4651;-50
2023/11/13 04:24:05;;;;;;;;;;;;;;;;;;5072481;28;5046;-51
2023/11/13 04:26:47;;;;;;;;;;;;;;;;;;5071951;28;3127;-51
2023/11/13 04:32:20;;;;;;;;;;;;;;;;;;5055583;28;4488;-50
2023/11/13 04:34:46;;;;;;;;;;;;;;;;;;5050838;28;4410;-49
2023/11/13 04:37:11;;;;;;;;;;;;;;;;;;5051085;28;5079;-48
2023/11/13 04:39:36;;;;;;;;;;;;;;;;;;5052774;28;5201;-49
2023/11/13 04:42:02;;;;;;;;;;;;;;;;;;5055666;28;5374;-52
2023/11/13 04:44:27;;;;;;;;;;;;;;;;;;5056063;28;1073;-51
2023/11/13 04:46:52;;;;;;;;;;;;;;;;;;5055396;28;4605;-50
2023/11/13 04:49:24;;;;;;;;;;;;;;;;;;5057894;28;5120;-51
2023/11/13 04:51:50;;;;;;;;;;;;;;;;;;5052184;28;4457;-52
2023/11/13 04:54:16;;;;;;;;;;;;;;;;;;5054365;28;5026;-51
2023/11/13 04:56:41;;;;;;;;;;;;;;;;;;5051135;28;2769;-47
2023/11/13 04:59:06;;;;;;;;;;;;;;;;;;5052016;28;4631;-49
2023/11/13 05:01:36;;;;;;;;;;;;;;;;;;5059329;28;4490;-49
2023/11/13 05:04:02;;;;;;;;;;;;;;;;;;5053251;28;5219;-48
2023/11/13 05:06:27;;;;;;;;;;;;;;;;;;5056957;28;4862;-49
2023/11/13 05:08:53;;;;;;;;;;;;;;;;;;5053705;28;1375;-49
2023/11/13 05:11:22;;;;;;;;;;;;;;;;;;5051544;28;4449;-48
2023/11/13 05:13:47;;;;;;;;;;;;;;;;;;5047616;28;5025;-48
2023/11/13 05:16:17;;;;;;;;;;;;;;;;;;5053246;28;4968;-52
2023/11/13 05:18:42;;;;;;;;;;;;;;;;;;5038047;28;5291;-49
2023/11/13 05:21:08;;;;;;;;;;;;;;;;;;5050746;28;4893;-48
2023/11/13 05:23:33;;;;;;;;;;;;;;;;;;5066707;28;2580;-47
2023/11/13 05:25:58;;;;;;;;;;;;;;;;;;5057903;28;4728;-49
2023/11/13 05:31:43;;;;;;;;;;;;;;;;;;5056022;28;5035;-49
2023/11/13 05:34:09;;;;;;;;;;;;;;;;;;5050006;28;4991;-50
2023/11/13 05:36:34;;;;;;;;;;;;;;;;;;5055252;28;5090;-50
2023/11/13 05:39:00;;;;;;;;;;;;;;;;;;5056304;28;1045;-49
2023/11/13 05:44:28;;;;;;;;;;;;;;;;;;5055517;28;4756;-49
2023/11/13 05:52:59;;;;;;;;;;;;;;;;;;5055947;28;4636;-52
2023/11/13 05:58:27;;;;;;;;;;;;;;;;;;5055326;28;5023;-52
2023/11/13 06:00:52;;;;;;;;;;;;;;;;;;5054899;28;4584;-53
2023/11/13 06:03:18;;;;;;;;;;;;;;;;;;5055210;28;4576;-49
2023/11/13 06:05:43;;;;;;;;;;;;;;;;;;5055505;28;1272;-51
2023/11/13 06:11:11;;;;;;;;;;;;;;;;;;5055605;28;4987;-51
2023/11/13 06:13:37;;;;;;;;;;;;;;;;;;5037072;28;4996;-49
2023/11/13 06:16:02;;;;;;;;;;;;;;;;;;5054485;28;4429;-51
2023/11/13 06:21:30;;;;;;;;;;;;;;;;;;5054892;28;4532;-49
2023/11/13 06:26:58;;;;;;;;;;;;;;;;;;5054999;28;5184;-49
2023/11/13 06:29:25;;;;;;;;;;;;;;;;;;5054610;28;1223;-52
2023/11/13 06:31:52;;;;;;;;;;;;;;;;;;5054776;28;4959;-52
2023/11/13 06:34:17;;;;;;;;;;;;;;;;;;5054075;28;4873;-51
2023/11/13 06:39:45;;;;;;;;;;;;;;;;;;5054685;28;4513;-52
2023/11/13 06:42:11;;;;;;;;;;;;;;;;;;5050961;28;4961;-54
2023/11/13 06:44:36;;;;;;;;;;;;;;;;;;5053798;28;1144;-52
2023/11/13 06:47:01;;;;;;;;;;;;;;;;;;5054457;28;4886;-51
2023/11/13 06:49:27;;;;;;;;;;;;;;;;;;5058325;28;4511;-52
2023/11/13 06:51:52;;;;;;;;;;;;;;;;;;5048527;28;4528;-50
2023/11/13 06:54:18;;;;;;;;;;;;;;;;;;5057264;28;4940;-54
2023/11/13 06:56:56;;;;;;;;;;;;;;;;;;5027901;28;3129;-51
2023/11/13 06:59:22;;;;;;;;;;;;;;;;;;5058352;28;4641;-54
2023/11/13 07:01:48;;;;;;;;;;;;;;;;;;5064854;28;5595;-53
2023/11/13 07:07:18;;;;;;;;;;;;;;;;;;5070581;28;4759;-50
2023/11/13 07:09:43;;;;;;;;;;;;;;;;;;5049308;28;4635;-51
2023/11/13 07:12:10;;;;;;;;;;;;;;;;;;5052752;28;5105;-52
2023/11/13 07:14:35;;;;;;;;;;;;;;;;;;5041998;28;1427;-53
2023/11/13 07:17:03;;;;;;;;;;;;;;;;;;5055526;28;5555;-52
2023/11/13 07:19:33;;;;;;;;;;;;;;;;;;5046159;28;4639;-54
2023/11/13 07:21:59;;;;;;;;;;;;;;;;;;5056316;28;4731;-52
2023/11/13 07:24:24;;;;;;;;;;;;;;;;;;5048010;28;4651;-53
2023/11/13 07:26:49;;;;;;;;;;;;;;;;;;5046167;28;1071;-54
2023/11/13 07:29:14;;;;;;;;;;;;;;;;;;5052336;28;4877;-53
2023/11/13 07:31:41;;;;;;;;;;;;;;;;;;5047656;28;5036;-53
2023/11/13 07:34:10;;;;;;;;;;;;;;;;;;5048385;28;4472;-50
2023/11/13 07:36:35;;;;;;;;;;;;;;;;;;5028362;28;4680;-50
2023/11/13 07:39:18;;;;;;;;;;;;;;;;;;5048310;28;4736;-51
2023/11/13 07:41:43;;;;;;;;;;;;;;;;;;5050340;28;1268;-52
2023/11/13 07:44:09;;;;;;;;;;;;;;;;;;5046272;28;4647;-53
2023/11/13 07:46:35;;;;;;;;;;;;;;;;;;5044525;28;4541;-51
2023/11/13 07:49:00;;;;;;;;;;;;;;;;;;5045217;28;4569;-52
2023/11/13 07:51:26;;;;;;;;;;;;;;;;;;5049505;28;5128;-53
2023/11/13 07:53:51;;;;;;;;;;;;;;;;;;5049922;28;1127;-52
2023/11/13 07:56:19;;;;;;;;;;;;;;;;;;5028468;28;5386;-53
2023/11/13 08:04:49;;;;;;;;;;;;;;;;;;5053788;28;5014;-50
2023/11/13 08:07:16;;;;;;;;;;;;;;;;;;5055054;28;5045;-50
2023/11/13 08:09:42;;;;;;;;;;;;;;;;;;5057334;28;4560;-52
2023/11/13 08:12:07;;;;;;;;;;;;;;;;;;5057451;28;5225;-52
2023/11/13 08:15:08;;;;;;;;;;;;;;;;;;5054822;28;963;-51
2023/11/13 08:17:34;;;;;;;;;;;;;;;;;;5053872;28;5078;-52
2023/11/13 08:20:00;;;;;;;;;;;;;;;;;;5054617;28;5100;-50
2023/11/13 08:22:26;;;;;;;;;;;;;;;;;;5028172;28;5181;-49
2023/11/13 08:24:52;;;;;;;;;;;;;;;;;;5051366;28;4498;-50
2023/11/13 08:27:18;;;;;;;;;;;;;;;;;;5051602;28;4893;-51
2023/11/13 08:29:44;;;;;;;;;;;;;;;;;;5049460;28;5075;-50
2023/11/13 08:32:09;;;;;;;;;;;;;;;;;;5052242;28;4752;-52
2023/11/13 08:34:34;;;;;;;;;;;;;;;;;;5051833;28;4995;-49
2023/11/13 08:37:03;;;;;;;;;;;;;;;;;;5049795;28;4496;-50
2023/11/13 08:39:28;;;;;;;;;;;;;;;;;;5055237;28;5018;-50
2023/11/13 08:41:56;;;;;;;;;;;;;;;;;;5052741;28;1191;-50
2023/11/13 08:50:30;;;;;;;;;;;;;;;;;;5052661;28;4750;-52
2023/11/13 08:52:56;;;;;;;;;;;;;;;;;;5056260;28;4703;-52
2023/11/13 08:55:23;;;;;;;;;;;;;;;;;;5055397;28;5079;-49
2023/11/13 08:57:48;;;;;;;;;;;;;;;;;;5052691;28;5092;-49
2023/11/13 09:00:24;;;;;;;;;;;;;;;;;;5050893;28;4638;-50
2023/11/13 09:02:56;;;;;;;;;;;;;;;;;;5059680;28;1108;-52
2023/11/13 09:05:49;;;;;;;;;;;;;;;;;;5054520;28;4973;-50
2023/11/13 09:08:14;;;;;;;;;;;;;;;;;;5055935;28;5010;-51
2023/11/13 09:10:41;;;;;;;;;;;;;;;;;;5042298;28;5148;-51
2023/11/13 09:13:07;;;;;;;;;;;;;;;;;;5030733;28;4612;-53
2023/11/13 09:15:33;;;;;;;;;;;;;;;;;;5048475;28;5139;-52
2023/11/13 09:18:23;;;;;;;;;;;;;;;;;;5059952;28;1192;-52
2023/11/13 09:20:48;;;;;;;;;;;;;;;;;;5051873;28;4986;-52
2023/11/13 09:23:13;;;;;;;;;;;;;;;;;;5051838;28;4920;-49
2023/11/13 09:25:39;;;;;;;;;;;;;;;;;;5049174;28;4884;-52
2023/11/13 09:28:05;;;;;;;;;;;;;;;;;;5049090;28;4497;-52
2023/11/13 09:30:30;;;;;;;;;;;;;;;;;;5050629;28;4671;-51
2023/11/13 09:32:55;;;;;;;;;;;;;;;;;;5015478;28;1985;-50
2023/11/13 09:35:22;;;;;;;;;;;;;;;;;;5049717;28;5135;-50
2023/11/13 09:37:54;;;;;;;;;;;;;;;;;;5014857;28;4510;-49
2023/11/13 09:40:24;;;;;;;;;;;;;;;;;;5031137;28;4972;-50
2023/11/13 09:43:03;;;;;;;;;;;;;;;;;;5035503;28;5029;-49
2023/11/13 09:45:28;;;;;;;;;;;;;;;;;;5036334;28;5091;-49
2023/11/13 09:48:20;;;;;;;;;;;;;;;;;;5059560;28;996;-52
2023/11/13 09:50:46;;;;;;;;;;;;;;;;;;5056450;28;5096;-48
2023/11/13 09:53:15;;;;;;;;;;;;;;;;;;5052280;28;5080;-51
2023/11/13 09:55:41;;;;;;;;;;;;;;;;;;5048515;28;5167;-50
2023/11/13 09:58:13;;;;;;;;;;;;;;;;;;5049011;28;5161;-51
2023/11/13 10:00:40;;;;;;;;;;;;;;;;;;5049576;28;4990;-52
2023/11/13 10:03:06;;;;;;;;;;;;;;;;;;5047748;28;5112;-49
2023/11/13 10:08:40;;;;;;;;;;;;;;;;;;5052967;28;4591;-49
2023/11/13 10:11:05;;;;;;;;;;;;;;;;;;5053836;28;5058;-51
2023/11/13 10:13:37;;;;;;;;;;;;;;;;;;5048188;28;5130;-50
2023/11/13 10:16:16;;;;;;;;;;;;;;;;;;5051067;28;4939;-48
2023/11/13 10:18:43;;;;;;;;;;;;;;;;;;5053947;28;5087;-49
2023/11/13 10:21:08;;;;;;;;;;;;;;;;;;5032844;28;4998;-50
2023/11/13 10:23:34;;;;;;;;;;;;;;;;;;5054984;28;965;-49
2023/11/13 10:26:00;;;;;;;;;;;;;;;;;;5053507;28;5012;-50
2023/11/13 10:28:37;;;;;;;;;;;;;;;;;;5058089;28;5130;-49
2023/11/13 10:31:16;;;;;;;;;;;;;;;;;;5057505;28;4666;-49
2023/11/13 10:33:43;;;;;;;;;;;;;;;;;;5048232;28;6069;-49
2023/11/13 10:36:17;;;;;;;;;;;;;;;;;;5019037;28;5058;-49
2023/11/13 10:38:47;;;;;;;;;;;;;;;;;;5066323;28;1124;-49
2023/11/13 10:41:12;;;;;;;;;;;;;;;;;;5072671;28;4649;-50
2023/11/13 10:43:39;;;;;;;;;;;;;;;;;;5016747;28;4537;-49
2023/11/13 10:46:05;;;;;;;;;;;;;;;;;;5050548;28;4976;-52
2023/11/13 10:48:31;;;;;;;;;;;;;;;;;;5030323;28;5759;-49
2023/11/13 10:51:19;;;;;;;;;;;;;;;;;;5052231;28;1072;-50
2023/11/13 10:53:46;;;;;;;;;;;;;;;;;;5058136;28;4778;-50
2023/11/13 10:56:25;;;;;;;;;;;;;;;;;;5031647;28;5014;-53
2023/11/13 10:58:51;;;;;;;;;;;;;;;;;;5047264;28;4643;-49
2023/11/13 11:01:51;;;;;;;;;;;;;;;;;;5031484;28;4683;-51
2023/11/13 11:04:17;;;;;;;;;;;;;;;;;;5047686;28;5868;-51
2023/11/13 11:06:57;;;;;;;;;;;;;;;;;;5056836;28;4975;-52
2023/11/13 11:09:23;;;;;;;;;;;;;;;;;;5051925;28;4869;-50
2023/11/13 11:11:49;;;;;;;;;;;;;;;;;;5052830;28;1989;-49
2023/11/13 11:17:25;;;;;;;;;;;;;;;;;;5044614;28;4408;-50
2023/11/13 11:19:50;;;;;;;;;;;;;;;;;;5032840;28;4958;-52
2023/11/13 11:22:28;;;;;;;;;;;;;;;;;;5033248;28;4520;-51
2023/11/13 11:25:00;;;;;;;;;;;;;;;;;;5029892;28;4546;-51
2023/11/13 11:27:40;;;;;;;;;;;;;;;;;;5049942;28;5029;-52
2023/11/13 11:30:18;;;;;;;;;;;;;;;;;;5049813;28;5047;-51
2023/11/13 11:32:55;;;;;;;;;;;;;;;;;;5052568;28;1898;-50
2023/11/13 11:35:21;;;;;;;;;;;;;;;;;;5049604;28;5552;-52
2023/11/13 11:38:06;;;;;;;;;;;;;;;;;;5029222;28;5011;-50
2023/11/13 11:40:52;;;;;;;;;;;;;;;;;;5040817;28;5021;-53
2023/11/13 11:43:18;;;;;;;;;;;;;;;;;;5054148;28;5001;-52
2023/11/13 11:45:51;;;;;;;;;;;;;;;;;;5048425;28;4473;-51
2023/11/13 11:48:18;;;;;;;;;;;;;;;;;;5051733;28;4526;-52
2023/11/13 11:50:45;;;;;;;;;;;;;;;;;;5048536;28;1119;-49
2023/11/13 11:53:16;;;;;;;;;;;;;;;;;;5049855;28;4989;-49
2023/11/13 11:55:42;;;;;;;;;;;;;;;;;;5054659;28;4635;-52
2023/11/13 11:58:08;;;;;;;;;;;;;;;;;;5049569;28;5135;-53
2023/11/13 12:00:35;;;;;;;;;;;;;;;;;;5051251;28;4626;-53
2023/11/13 12:03:04;;;;;;;;;;;;;;;;;;5036809;28;4504;-55
2023/11/13 12:14:37;;;;;;;;;;;;;;;;;;5052583;28;4638;-50
2023/11/13 12:17:03;;;;;;;;;;;;;;;;;;5054109;28;4658;-53
2023/11/13 12:19:35;;;;;;;;;;;;;;;;;;5033399;28;4594;-54
2023/11/13 12:22:03;;;;;;;;;;;;;;;;;;5053463;28;4556;-54
2023/11/13 12:24:28;;;;;;;;;;;;;;;;;;5039814;28;5056;-52
2023/11/13 12:26:56;;;;;;;;;;;;;;;;;;5040630;28;1449;-51
2023/11/13 12:29:22;;;;;;;;;;;;;;;;;;5036331;28;4849;-49
2023/11/13 12:31:51;;;;;;;;;;;;;;;;;;5055542;28;4839;-51
2023/11/13 12:34:16;;;;;;;;;;;;;;;;;;5049770;28;4764;-49
2023/11/13 12:36:42;;;;;;;;;;;;;;;;;;5018000;28;4834;-52
2023/11/13 12:39:13;;;;;;;;;;;;;;;;;;5051200;28;5193;-50
2023/11/13 12:41:38;;;;;;;;;;;;;;;;;;5053447;28;1153;-53
2023/11/13 12:44:05;;;;;;;;;;;;;;;;;;5019045;28;4983;-53
2023/11/13 12:46:30;;;;;;;;;;;;;;;;;;5034701;28;4669;-53
2023/11/13 12:48:58;;;;;;;;;;;;;;;;;;5050089;28;4864;-53
2023/11/13 12:51:26;;;;;;;;;;;;;;;;;;5054645;28;5125;-54
2023/11/13 12:53:51;;;;;;;;;;;;;;;;;;5032863;28;1969;-55
2023/11/13 12:56:16;;;;;;;;;;;;;;;;;;5032524;28;4488;-54
2023/11/13 12:58:50;;;;;;;;;;;;;;;;;;5032062;28;4604;-50
2023/11/13 13:01:16;;;;;;;;;;;;;;;;;;5053307;28;4905;-51
2023/11/13 13:03:42;;;;;;;;;;;;;;;;;;5064454;28;4914;-54
2023/11/13 13:09:16;;;;;;;;;;;;;;;;;;5049599;28;5340;-51
2023/11/13 13:11:48;;;;;;;;;;;;;;;;;;5051956;28;1922;-54
2023/11/13 13:14:17;;;;;;;;;;;;;;;;;;5050826;28;4443;-54
2023/11/13 13:16:42;;;;;;;;;;;;;;;;;;5034497;28;5021;-57
2023/11/13 13:19:09;;;;;;;;;;;;;;;;;;5065950;28;4540;-53
2023/11/13 13:21:36;;;;;;;;;;;;;;;;;;5074177;28;5352;-54
2023/11/13 13:24:01;;;;;;;;;;;;;;;;;;5033973;28;5067;-54
2023/11/13 13:26:27;;;;;;;;;;;;;;;;;;5049665;28;1659;-55
2023/11/13 13:28:55;;;;;;;;;;;;;;;;;;5048644;28;4985;-53
2023/11/13 13:31:55;;;;;;;;;;;;;;;;;;5043010;28;4530;-50
2023/11/13 13:34:20;;;;;;;;;;;;;;;;;;5034324;28;5016;-50
2023/11/13 13:36:46;;;;;;;;;;;;;;;;;;5047527;28;5074;-52
2023/11/13 13:39:15;;;;;;;;;;;;;;;;;;5029796;28;5071;-52
2023/11/13 13:41:43;;;;;;;;;;;;;;;;;;5052481;28;1048;-49
2023/11/13 13:44:12;;;;;;;;;;;;;;;;;;5030969;28;5079;-50
2023/11/13 13:46:38;;;;;;;;;;;;;;;;;;5017372;28;4758;-52
2023/11/13 13:49:05;;;;;;;;;;;;;;;;;;5048093;28;4702;-51
2023/11/13 13:51:33;;;;;;;;;;;;;;;;;;5032379;28;4973;-49
2023/11/13 13:53:59;;;;;;;;;;;;;;;;;;5051060;28;1118;-51
2023/11/13 13:56:28;;;;;;;;;;;;;;;;;;5056567;28;5038;-52
2023/11/13 14:01:57;;;;;;;;;;;;;;;;;;5047368;28;4891;-52
2023/11/13 14:04:23;;;;;;;;;;;;;;;;;;5035207;28;5287;-52
2023/11/13 14:06:48;;;;;;;;;;;;;;;;;;5052011;28;5034;-52
2023/11/13 14:09:16;;;;;;;;;;;;;;;;;;5050106;28;5046;-50
2023/11/13 14:11:57;;;;;;;;;;;;;;;;;;5054405;28;1975;-49
2023/11/13 14:17:56;;;;;;;;;;;;;;;;;;5052191;28;4926;-52
2023/11/13 14:20:28;;;;;;;;;;;;;;;;;;5048308;28;5121;-53
2023/11/13 14:22:56;;;;;;;;;;;;;;;;;;5046136;28;4417;-53
2023/11/13 14:31:48;;;;;;;;;;;;;;;;;;5064463;28;4628;-50
2023/11/13 14:34:16;;;;;;;;;;;;;;;;;;5061242;28;4490;-50
2023/11/13 14:36:55;;;;;;;;;;;;;;;;;;5033000;28;5181;-52
2023/11/13 14:39:21;;;;;;;;;;;;;;;;;;5074290;28;4409;-50
2023/11/13 14:41:47;;;;;;;;;;;;;;;;;;5055278;28;1002;-53
2023/11/13 14:44:12;;;;;;;;;;;;;;;;;;5030929;28;5100;-52
2023/11/13 14:46:37;;;;;;;;;;;;;;;;;;5035026;28;4946;-49
2023/11/13 14:49:03;;;;;;;;;;;;;;;;;;5071519;28;4884;-52
2023/11/13 14:51:29;;;;;;;;;;;;;;;;;;5052401;28;4432;-50
2023/11/13 14:53:54;;;;;;;;;;;;;;;;;;5058133;28;1979;-52
2023/11/13 14:56:20;;;;;;;;;;;;;;;;;;5050021;28;5016;-54
2023/11/13 14:58:45;;;;;;;;;;;;;;;;;;5047037;28;5077;-71
2023/11/13 15:01:11;;;;;;;;;;;;;;;;;;5056089;28;4475;-71
2023/11/13 15:03:36;;;;;;;;;;;;;;;;;;5071827;28;4881;-70
2023/11/13 15:06:03;;;;;;;;;;;;;;;;;;5074891;28;4720;-71
2023/11/13 15:08:29;;;;;;;;;;;;;;;;;;5074566;28;969;-72
2023/11/13 15:13:57;;;;;;;;;;;;;;;;;;5054159;28;5220;-72
2023/11/13 15:19:31;;;;;;;;;;;;;;;;;;5050808;28;4677;-71
2023/11/13 15:21:56;;;;;;;;;;;;;;;;;;5035654;28;4952;-71
2023/11/13 15:24:23;;;;;;;;;;;;;;;;;;5053710;28;5214;-71
2023/11/13 15:32:59;;;;;;;;;;;;;;;;;;5074430;28;4505;-70
2023/11/13 15:35:25;;;;;;;;;;;;;;;;;;5073597;28;4413;-69
2023/11/13 15:37:51;;;;;;;;;;;;;;;;;;5055428;28;4947;-69
2023/11/13 15:40:16;;;;;;;;;;;;;;;;;;5053415;28;5031;-69
2023/11/13 15:42:54;;;;;;;;;;;;;;;;;;5033171;28;4691;-69
2023/11/13 15:48:40;;;;;;;;;;;;;;;;;;5055695;28;4802;-70
2023/11/13 15:51:06;;;;;;;;;;;;;;;;;;5045660;28;5109;-48
2023/11/13 15:53:31;;;;;;;;;;;;;;;;;;5019803;28;2870;-49
2023/11/13 15:55:58;;;;;;;;;;;;;;;;;;5053069;28;5023;-48
2023/11/13 15:58:23;;;;;;;;;;;;;;;;;;5029979;28;5050;-51
2023/11/13 16:00:48;;;;;;;;;;;;;;;;;;5050049;28;5108;-50
2023/11/13 16:03:13;;;;;;;;;;;;;;;;;;5044540;28;4653;-48
2023/11/13 16:05:39;;;;;;;;;;;;;;;;;;5050521;28;1204;-49
2023/11/13 16:08:05;;;;;;;;;;;;;;;;;;5046462;28;4477;-49
2023/11/13 16:10:30;;;;;;;;;;;;;;;;;;5048309;28;5010;-52
2023/11/13 16:12:57;;;;;;;;;;;;;;;;;;5051859;28;5025;-49
2023/11/13 16:15:23;;;;;;;;;;;;;;;;;;5030807;28;4996;-51
2023/11/13 16:21:09;;;;;;;;;;;;;;;;;;5046008;28;4544;-50
2023/11/13 16:23:36;;;;;;;;;;;;;;;;;;5051316;28;5248;-51
2023/11/13 16:29:06;;;;;;;;;;;;;;;;;;5053185;28;5349;-50
2023/11/13 16:31:31;;;;;;;;;;;;;;;;;;5038844;28;5156;-48
2023/11/13 16:33:57;;;;;;;;;;;;;;;;;;5051782;28;4671;-48
2023/11/13 16:36:23;;;;;;;;;;;;;;;;;;5054725;28;4445;-49
2023/11/13 16:38:48;;;;;;;;;;;;;;;;;;5053766;28;991;-49
2023/11/13 16:41:14;;;;;;;;;;;;;;;;;;5052130;28;4440;-50
2023/11/13 16:43:40;;;;;;;;;;;;;;;;;;5034575;28;5063;-50
2023/11/13 16:46:06;;;;;;;;;;;;;;;;;;5049224;28;4966;-48
2023/11/13 16:48:32;;;;;;;;;;;;;;;;;;5049489;28;4802;-49
2023/11/13 16:50:57;;;;;;;;;;;;;;;;;;5049431;28;1390;-50
2023/11/13 16:53:23;;;;;;;;;;;;;;;;;;5051576;28;4579;-51
2023/11/13 16:55:51;;;;;;;;;;;;;;;;;;5052676;28;5251;-49
2023/11/13 16:58:17;;;;;;;;;;;;;;;;;;5050293;28;4643;-48
2023/11/13 17:00:59;;;;;;;;;;;;;;;;;;5049889;28;5076;-49
2023/11/13 17:03:24;;;;;;;;;;;;;;;;;;5065493;28;5029;-50
2023/11/13 17:05:50;;;;;;;;;;;;;;;;;;5051127;28;1391;-50
2023/11/13 17:08:16;;;;;;;;;;;;;;;;;;5029987;28;5068;-49
2023/11/13 17:10:41;;;;;;;;;;;;;;;;;;5035677;28;5104;-52
2023/11/13 17:13:07;;;;;;;;;;;;;;;;;;5052830;28;5173;-52
2023/11/13 17:15:33;;;;;;;;;;;;;;;;;;5035567;28;4485;-48
2023/11/13 17:17:59;;;;;;;;;;;;;;;;;;5048331;28;1493;-49
2023/11/13 17:20:25;;;;;;;;;;;;;;;;;;5049541;28;5075;-47
2023/11/13 17:22:50;;;;;;;;;;;;;;;;;;5049586;28;4933;-48
2023/11/13 17:25:15;;;;;;;;;;;;;;;;;;5051090;28;5105;-49
2023/11/13 17:27:40;;;;;;;;;;;;;;;;;;5035049;28;4977;-49
2023/11/13 17:30:06;;;;;;;;;;;;;;;;;;5050339;28;5065;-52
2023/11/13 17:32:33;;;;;;;;;;;;;;;;;;5051492;28;1914;-49
2023/11/13 17:34:58;;;;;;;;;;;;;;;;;;5047455;28;4723;-49
2023/11/13 17:37:24;;;;;;;;;;;;;;;;;;5049433;28;4998;-49
2023/11/13 17:39:49;;;;;;;;;;;;;;;;;;5049102;28;4764;-49
2023/11/13 17:42:15;;;;;;;;;;;;;;;;;;5056046;28;5064;-49
2023/11/13 17:44:41;;;;;;;;;;;;;;;;;;5047524;28;1049;-51
2023/11/13 17:47:08;;;;;;;;;;;;;;;;;;5028868;28;4748;-49
2023/11/13 17:49:34;;;;;;;;;;;;;;;;;;5050212;28;4985;-49
2023/11/13 17:51:59;;;;;;;;;;;;;;;;;;5048369;28;5111;-49
2023/11/13 17:54:26;;;;;;;;;;;;;;;;;;5048356;28;4489;-52
2023/11/13 17:56:52;;;;;;;;;;;;;;;;;;5048023;28;1272;-48
2023/11/13 17:59:18;;;;;;;;;;;;;;;;;;5048357;28;4622;-50
2023/11/13 18:01:44;;;;;;;;;;;;;;;;;;5051654;28;4627;-51
2023/11/13 18:04:10;;;;;;;;;;;;;;;;;;5051404;28;4919;-51
2023/11/13 18:06:36;;;;;;;;;;;;;;;;;;5061492;28;4461;-49
2023/11/13 18:09:02;;;;;;;;;;;;;;;;;;5053043;28;4942;-54
2023/11/13 18:11:28;;;;;;;;;;;;;;;;;;5047216;28;1051;-51
2023/11/13 18:14:00;;;;;;;;;;;;;;;;;;5038665;28;4686;-50
2023/11/13 18:16:26;;;;;;;;;;;;;;;;;;5050547;28;4947;-47
2023/11/13 18:18:53;;;;;;;;;;;;;;;;;;5057991;28;5113;-49
2023/11/13 18:21:18;;;;;;;;;;;;;;;;;;5057036;28;4714;-51
2023/11/13 18:23:44;;;;;;;;;;;;;;;;;;5049069;28;1072;-50
2023/11/13 18:26:11;;;;;;;;;;;;;;;;;;5049782;28;5042;-48
2023/11/13 18:28:36;;;;;;;;;;;;;;;;;;5048573;28;5305;-49
2023/11/13 18:31:03;;;;;;;;;;;;;;;;;;5061990;28;5008;-49
2023/11/13 18:33:30;;;;;;;;;;;;;;;;;;5048264;28;4697;-50
2023/11/13 18:36:01;;;;;;;;;;;;;;;;;;5046890;28;1074;-50
2023/11/13 18:41:35;;;;;;;;;;;;;;;;;;5051462;28;4588;-49
2023/11/13 18:44:00;;;;;;;;;;;;;;;;;;5048596;28;4864;-49
2023/11/13 18:46:26;;;;;;;;;;;;;;;;;;5061342;28;5164;-50
2023/11/13 18:48:59;;;;;;;;;;;;;;;;;;5065337;28;5452;-50
2023/11/13 18:51:25;;;;;;;;;;;;;;;;;;5046588;28;5132;-49
2023/11/13 18:53:50;;;;;;;;;;;;;;;;;;5034081;28;1922;-49
2023/11/13 18:56:15;;;;;;;;;;;;;;;;;;5052770;28;4820;-52
2023/11/13 18:58:47;;;;;;;;;;;;;;;;;;5049864;28;5004;-50
2023/11/13 19:01:15;;;;;;;;;;;;;;;;;;5031338;28;5373;-50
2023/11/13 19:03:42;;;;;;;;;;;;;;;;;;5052740;28;5121;-50
2023/11/13 19:06:07;;;;;;;;;;;;;;;;;;5032985;28;5090;-48
2023/11/13 19:08:36;;;;;;;;;;;;;;;;;;5049060;28;1387;-49
2023/11/13 19:11:03;;;;;;;;;;;;;;;;;;5031839;28;4501;-49
2023/11/13 19:13:29;;;;;;;;;;;;;;;;;;5048905;28;4750;-50
2023/11/13 19:15:56;;;;;;;;;;;;;;;;;;5047989;28;4968;-49
2023/11/13 19:18:21;;;;;;;;;;;;;;;;;;5027602;28;4466;-49
2023/11/13 19:20:47;;;;;;;;;;;;;;;;;;5045048;28;1343;-47
2023/11/13 19:23:13;;;;;;;;;;;;;;;;;;5047325;28;4957;-49